createdAt,value
2022-12-18T00:00:38.000Z,12.7
2022-12-18T00:04:06.000Z,13.1
2022-12-18T00:07:34.000Z,11.8
2022-12-18T00:11:02.000Z,13.8
2022-12-18T00:14:30.000Z,16.4
2022-12-18T00:18:02.000Z,19.7
2022-12-18T00:21:30.000Z,22.1
2022-12-18T00:24:58.000Z,21.1
2022-12-18T00:28:25.000Z,16.5
2022-12-18T00:31:53.000Z,13.6
2022-12-18T00:35:21.000Z,11.4
2022-12-18T00:38:11.000Z,11.5
2022-12-18T00:41:38.000Z,13.2
2022-12-18T00:45:06.000Z,12.5
2022-12-18T00:48:34.000Z,15.6
2022-12-18T00:52:02.000Z,16.8
2022-12-18T00:55:30.000Z,14.6
2022-12-18T00:58:58.000Z,15.6
2022-12-18T01:02:26.000Z,19.6
2022-12-18T01:05:54.000Z,14
2022-12-18T01:09:22.000Z,14.5
2022-12-18T01:12:50.000Z,18.5
2022-12-18T01:15:39.000Z,21.3
2022-12-18T01:19:06.000Z,18.1
2022-12-18T01:22:34.000Z,18.5
2022-12-18T01:26:02.000Z,21
2022-12-18T01:29:30.000Z,19.3
2022-12-18T01:32:58.000Z,21.4
2022-12-18T01:36:26.000Z,18.6
2022-12-18T01:39:54.000Z,20.1
2022-12-18T01:43:22.000Z,20.5
2022-12-18T01:46:50.000Z,21.1
2022-12-18T01:50:18.000Z,17.5
2022-12-18T01:53:07.000Z,12.9
2022-12-18T01:56:35.000Z,12.2
2022-12-18T02:00:02.000Z,11.7
2022-12-18T02:03:31.000Z,15
2022-12-18T02:06:59.000Z,14.1
2022-12-18T02:10:27.000Z,13.3
2022-12-18T02:13:55.000Z,15.2
2022-12-18T02:17:23.000Z,16.6
2022-12-18T02:20:51.000Z,16.6
2022-12-18T02:24:19.000Z,18.5
2022-12-18T02:27:47.000Z,13.8
2022-12-18T02:30:36.000Z,11.3
2022-12-18T02:34:04.000Z,10.5
2022-12-18T02:37:32.000Z,12.5
2022-12-18T02:41:00.000Z,11.8
2022-12-18T02:44:28.000Z,11.4
2022-12-18T02:47:56.000Z,12.1
2022-12-18T02:51:24.000Z,12.9
2022-12-18T02:54:51.000Z,12.8
2022-12-18T02:58:19.000Z,13
2022-12-18T03:01:47.000Z,12.1
2022-12-18T03:05:16.000Z,9.2
2022-12-18T03:08:05.000Z,12.4
2022-12-18T03:11:33.000Z,11.6
2022-12-18T03:15:01.000Z,12.3
2022-12-18T03:18:35.000Z,12.6
2022-12-18T03:22:02.000Z,11.7
2022-12-18T03:25:30.000Z,11.4
2022-12-18T03:28:58.000Z,11.3
2022-12-18T03:32:26.000Z,10.6
2022-12-18T03:35:54.000Z,12.5
2022-12-18T03:39:22.000Z,11.5
2022-12-18T03:42:50.000Z,12.1
2022-12-18T03:45:39.000Z,11.9
2022-12-18T03:49:07.000Z,12.4
2022-12-18T03:52:35.000Z,12.5
2022-12-18T03:56:03.000Z,13.2
2022-12-18T03:59:31.000Z,11.3
2022-12-18T04:02:59.000Z,10.9
2022-12-18T04:06:27.000Z,11.2
2022-12-18T04:09:54.000Z,10.9
2022-12-18T04:13:22.000Z,11.3
2022-12-18T04:16:50.000Z,11.7
2022-12-18T04:20:18.000Z,11.9
2022-12-18T04:23:08.000Z,13.1
2022-12-18T04:26:35.000Z,16.6
2022-12-18T04:30:03.000Z,18.9
2022-12-18T04:33:31.000Z,14.8
2022-12-18T04:37:00.000Z,12.6
2022-12-18T04:40:28.000Z,9.3
2022-12-18T04:43:56.000Z,12.2
2022-12-18T04:47:24.000Z,11.8
2022-12-18T04:50:51.000Z,12.1
2022-12-18T04:54:19.000Z,12.5
2022-12-18T04:57:47.000Z,11.2
2022-12-18T05:00:36.000Z,12.1
2022-12-18T05:04:04.000Z,12.2
2022-12-18T05:07:32.000Z,12.8
2022-12-18T05:11:01.000Z,13.5
2022-12-18T05:14:31.000Z,13.1
2022-12-18T05:17:59.000Z,11.9
2022-12-18T05:21:27.000Z,11.2
2022-12-18T05:24:55.000Z,13.7
2022-12-18T05:28:23.000Z,13.4
2022-12-18T05:31:51.000Z,13.2
2022-12-18T05:35:18.000Z,13
2022-12-18T05:38:07.000Z,12.2
2022-12-18T05:41:35.000Z,10.2
2022-12-18T05:45:04.000Z,12.3
2022-12-18T05:48:32.000Z,12.5
2022-12-18T05:52:00.000Z,14
2022-12-18T05:55:28.000Z,14.5
2022-12-18T05:58:56.000Z,14.7
2022-12-18T06:02:23.000Z,13.5
2022-12-18T06:05:51.000Z,10.9
2022-12-18T06:09:19.000Z,10.9
2022-12-18T06:12:47.000Z,12.4
2022-12-18T06:15:36.000Z,12.3
2022-12-18T06:19:04.000Z,10.4
2022-12-18T06:22:32.000Z,11
2022-12-18T06:26:00.000Z,12.6
2022-12-18T06:29:28.000Z,13.3
2022-12-18T06:32:56.000Z,11.9
2022-12-18T06:36:24.000Z,13.6
2022-12-18T06:39:52.000Z,9.7
2022-12-18T06:43:20.000Z,13.6
2022-12-18T06:46:48.000Z,13.3
2022-12-18T06:50:16.000Z,13.8
2022-12-18T06:53:04.000Z,12.9
2022-12-18T06:56:32.000Z,14.5
2022-12-18T07:00:00.000Z,15.3
2022-12-18T07:03:28.000Z,14.3
2022-12-18T07:07:03.000Z,14
2022-12-18T07:10:31.000Z,14
2022-12-18T07:14:06.000Z,13.8
2022-12-18T07:17:34.000Z,13.6
2022-12-18T07:21:02.000Z,15
2022-12-18T07:24:30.000Z,15.1
2022-12-18T07:27:58.000Z,15
2022-12-18T07:30:47.000Z,13.4
2022-12-18T07:34:16.000Z,12.5
2022-12-18T07:37:44.000Z,14
2022-12-18T07:41:12.000Z,13.9
2022-12-18T07:44:40.000Z,11.2
2022-12-18T07:48:09.000Z,14.2
2022-12-18T07:51:37.000Z,15.9
2022-12-18T07:55:05.000Z,11.9
2022-12-18T07:58:33.000Z,16
2022-12-18T08:02:01.000Z,15.6
2022-12-18T08:05:29.000Z,22.9
2022-12-18T08:08:18.000Z,22.6
2022-12-18T08:11:46.000Z,22.9
2022-12-18T08:15:13.000Z,31.3
2022-12-18T08:18:41.000Z,33.8
2022-12-18T08:22:10.000Z,34.3
2022-12-18T08:25:39.000Z,23.7
2022-12-18T08:29:25.000Z,20.5
2022-12-18T08:32:54.000Z,20.4
2022-12-18T08:36:22.000Z,18.8
2022-12-18T08:39:49.000Z,16.5
2022-12-18T08:43:17.000Z,16.2
2022-12-18T08:46:07.000Z,23.8
2022-12-18T08:49:35.000Z,19
2022-12-18T08:53:03.000Z,20.8
2022-12-18T08:56:31.000Z,26
2022-12-18T08:59:58.000Z,22.8
2022-12-18T09:03:28.000Z,19.3
2022-12-18T09:06:55.000Z,19.4
2022-12-18T09:10:23.000Z,18.5
2022-12-18T09:13:51.000Z,20.1
2022-12-18T09:17:19.000Z,19.8
2022-12-18T09:20:47.000Z,22.7
2022-12-18T09:23:36.000Z,22.6
2022-12-18T09:27:04.000Z,23.5
2022-12-18T09:30:32.000Z,20.8
2022-12-18T09:34:00.000Z,19.4
2022-12-18T09:37:28.000Z,22.3
2022-12-18T09:41:01.000Z,22.4
2022-12-18T09:44:28.000Z,19.1
2022-12-18T09:48:05.000Z,21.8
2022-12-18T09:51:32.000Z,19.4
2022-12-18T09:55:01.000Z,19.9
2022-12-18T09:58:28.000Z,18.7
2022-12-18T10:01:17.000Z,19.7
2022-12-18T10:04:49.000Z,21.2
2022-12-18T10:08:17.000Z,20.5
2022-12-18T10:11:45.000Z,21.9
2022-12-18T10:15:13.000Z,21.7
2022-12-18T10:18:41.000Z,22
2022-12-18T10:22:08.000Z,20.4
2022-12-18T10:25:44.000Z,22.4
2022-12-18T10:29:12.000Z,17.7
2022-12-18T10:32:39.000Z,18.4
2022-12-18T10:36:07.000Z,20.1
2022-12-18T10:38:56.000Z,20.1
2022-12-18T10:42:24.000Z,24
2022-12-18T10:45:53.000Z,19.5
2022-12-18T10:49:21.000Z,14.6
2022-12-18T10:53:09.000Z,16.4
2022-12-18T10:56:37.000Z,18.8
2022-12-18T11:00:06.000Z,21.4
2022-12-18T11:03:34.000Z,22.6
2022-12-18T11:07:02.000Z,15
2022-12-18T11:10:30.000Z,21.1
2022-12-18T11:13:58.000Z,23
2022-12-18T11:16:47.000Z,22.8
2022-12-18T11:20:45.000Z,20.6
2022-12-18T11:24:19.000Z,23.7
2022-12-18T11:27:46.000Z,21.7
2022-12-18T11:31:15.000Z,21.5
2022-12-18T11:34:44.000Z,18.8
2022-12-18T11:38:19.000Z,18.5
2022-12-18T11:41:47.000Z,18.4
2022-12-18T11:45:14.000Z,18.3
2022-12-18T11:48:42.000Z,20.2
2022-12-18T11:52:10.000Z,19.9
2022-12-18T11:54:59.000Z,26.1
2022-12-18T11:58:27.000Z,21.3
2022-12-18T12:01:55.000Z,22.8
2022-12-18T12:05:24.000Z,25.1
2022-12-18T12:08:59.000Z,21.3
2022-12-18T12:12:27.000Z,20.2
2022-12-18T12:15:54.000Z,23.2
2022-12-18T12:19:23.000Z,23.3
2022-12-18T12:22:51.000Z,21.9
2022-12-18T12:26:19.000Z,26.5
2022-12-18T12:29:47.000Z,26.8
2022-12-18T12:32:36.000Z,27.4
2022-12-18T12:36:05.000Z,23.1
2022-12-18T12:39:33.000Z,28.3
2022-12-18T12:43:01.000Z,25.2
2022-12-18T12:46:29.000Z,28.1
2022-12-18T12:49:57.000Z,24.3
2022-12-18T12:53:28.000Z,25.1
2022-12-18T12:56:56.000Z,24.9
2022-12-18T13:00:25.000Z,21
2022-12-18T13:03:54.000Z,27.3
2022-12-18T13:07:22.000Z,23.4
2022-12-18T13:10:12.000Z,30
2022-12-18T13:13:41.000Z,41
2022-12-18T13:17:10.000Z,35.6
2022-12-18T13:20:40.000Z,30.6
2022-12-18T13:24:16.000Z,41.3
2022-12-18T13:27:43.000Z,20.5
2022-12-18T13:31:13.000Z,24.2
2022-12-18T13:34:41.000Z,21.3
2022-12-18T13:38:08.000Z,22.8
2022-12-18T13:41:38.000Z,24.5
2022-12-18T13:45:07.000Z,21.8
2022-12-18T13:47:56.000Z,22.9
2022-12-18T13:51:24.000Z,23
2022-12-18T13:54:52.000Z,23.4
2022-12-18T13:58:20.000Z,22.1
2022-12-18T14:01:48.000Z,22.3
2022-12-18T14:05:18.000Z,23.4
2022-12-18T14:08:47.000Z,19.9
2022-12-18T14:12:44.000Z,23.5
2022-12-18T14:16:12.000Z,23.3
2022-12-18T14:19:41.000Z,23.2
2022-12-18T14:23:09.000Z,22.5
2022-12-18T14:25:58.000Z,24.5
2022-12-18T14:29:26.000Z,23.7
2022-12-18T14:32:54.000Z,25.2
2022-12-18T14:36:22.000Z,23.2
2022-12-18T14:39:50.000Z,25.1
2022-12-18T14:43:18.000Z,23.4
2022-12-18T14:47:10.000Z,24.1
2022-12-18T14:50:38.000Z,24.5
2022-12-18T14:54:07.000Z,25.7
2022-12-18T14:57:35.000Z,25.3
2022-12-18T15:01:03.000Z,25.5
2022-12-18T15:03:52.000Z,22.3
2022-12-18T15:07:20.000Z,25.4
2022-12-18T15:10:48.000Z,25.4
2022-12-18T15:14:16.000Z,26.7
2022-12-18T15:17:44.000Z,22.8
2022-12-18T15:21:12.000Z,25.4
2022-12-18T15:24:40.000Z,24.9
2022-12-18T15:28:08.000Z,23.4
2022-12-18T15:31:35.000Z,24.2
2022-12-18T15:35:03.000Z,22.5
2022-12-18T15:38:31.000Z,22.7
2022-12-18T15:41:20.000Z,23
2022-12-18T15:44:48.000Z,23.1
2022-12-18T15:48:16.000Z,21.4
2022-12-18T15:51:44.000Z,24.9
2022-12-18T15:55:12.000Z,24.3
2022-12-18T15:58:40.000Z,24.1
2022-12-18T16:02:08.000Z,25.7
2022-12-18T16:05:37.000Z,22.5
2022-12-18T16:09:15.000Z,28.7
2022-12-18T16:12:47.000Z,23.9
2022-12-18T16:16:14.000Z,28
2022-12-18T16:19:05.000Z,21.9
2022-12-18T16:22:33.000Z,24.5
2022-12-18T16:26:01.000Z,17.4
2022-12-18T16:29:29.000Z,22.1
2022-12-18T16:32:57.000Z,21.1
2022-12-18T16:36:25.000Z,22.6
2022-12-18T16:39:53.000Z,22.3
2022-12-18T16:43:21.000Z,22
2022-12-18T16:46:49.000Z,19.3
2022-12-18T16:50:17.000Z,21.9
2022-12-18T16:53:45.000Z,21.9
2022-12-18T16:56:34.000Z,20.4
2022-12-18T17:00:02.000Z,19.1
2022-12-18T17:03:30.000Z,19.8
2022-12-18T17:06:59.000Z,18.5
2022-12-18T17:10:26.000Z,19.9
2022-12-18T17:14:00.000Z,19.5
2022-12-18T17:17:28.000Z,24.7
2022-12-18T17:20:56.000Z,25.3
2022-12-18T17:24:23.000Z,23.7
2022-12-18T17:27:55.000Z,21.3
2022-12-18T17:31:23.000Z,21.6
2022-12-18T17:34:12.000Z,23.6
2022-12-18T17:37:42.000Z,20.9
2022-12-18T17:41:09.000Z,21
2022-12-18T17:44:37.000Z,22.8
2022-12-18T17:48:05.000Z,23.6
2022-12-18T17:51:33.000Z,21.6
2022-12-18T17:55:01.000Z,25.1
2022-12-18T17:58:30.000Z,18.3
2022-12-18T18:01:59.000Z,22.7
2022-12-18T18:05:27.000Z,19
2022-12-18T18:08:55.000Z,19.5
2022-12-18T18:11:45.000Z,22.8
2022-12-18T18:15:14.000Z,21.6
2022-12-18T18:18:42.000Z,21.5
2022-12-18T18:22:18.000Z,19.2
2022-12-18T18:25:48.000Z,21.7
2022-12-18T18:29:16.000Z,21.1
2022-12-18T18:32:47.000Z,20.8
2022-12-18T18:36:15.000Z,22.4
2022-12-18T18:39:42.000Z,21.7
2022-12-18T18:43:10.000Z,25.6
2022-12-18T18:46:45.000Z,30.7
2022-12-18T18:49:34.000Z,32.6
2022-12-18T18:53:02.000Z,26.9
2022-12-18T18:56:30.000Z,26.2
2022-12-18T19:00:40.000Z,23
2022-12-18T19:04:08.000Z,22.5
2022-12-18T19:07:43.000Z,27.4
2022-12-18T19:11:11.000Z,24.7
2022-12-18T19:14:40.000Z,22.2
2022-12-18T19:18:08.000Z,22.6
2022-12-18T19:21:37.000Z,22.5
2022-12-18T19:25:05.000Z,23.3
2022-12-18T19:27:54.000Z,21.2
2022-12-18T19:31:25.000Z,17.2
2022-12-18T19:35:22.000Z,22
2022-12-18T19:38:56.000Z,21.6
2022-12-18T19:42:24.000Z,20.1
2022-12-18T19:45:57.000Z,22.4
2022-12-18T19:49:25.000Z,21.9
2022-12-18T19:52:53.000Z,25.7
2022-12-18T19:56:22.000Z,20.9
2022-12-18T19:59:50.000Z,24.6
2022-12-18T20:03:18.000Z,26.9
2022-12-18T20:06:13.000Z,27.7
2022-12-18T20:09:41.000Z,24.7
2022-12-18T20:13:20.000Z,22.8
2022-12-18T20:16:47.000Z,28.2
2022-12-18T20:20:16.000Z,23.1
2022-12-18T20:23:44.000Z,25.2
2022-12-18T20:27:12.000Z,23.5
2022-12-18T20:30:40.000Z,20.8
2022-12-18T20:34:08.000Z,22
2022-12-18T20:37:37.000Z,24.8
2022-12-18T20:41:11.000Z,23.9
2022-12-18T20:44:00.000Z,27.9
2022-12-18T20:47:43.000Z,26.3
2022-12-18T20:51:11.000Z,25.5
2022-12-18T20:54:39.000Z,20.2
2022-12-18T20:58:07.000Z,25.2
2022-12-18T21:01:44.000Z,24.4
2022-12-18T21:05:12.000Z,25
2022-12-18T21:08:48.000Z,21.2
2022-12-18T21:12:16.000Z,22.4
2022-12-18T21:15:44.000Z,22.1
2022-12-18T21:19:12.000Z,24
2022-12-18T21:22:01.000Z,23.5
2022-12-18T21:25:29.000Z,23.9
2022-12-18T21:28:57.000Z,23.5
2022-12-18T21:32:25.000Z,20.8
2022-12-18T21:35:58.000Z,24.3
2022-12-18T21:39:26.000Z,24
2022-12-18T21:42:54.000Z,24.1
2022-12-18T21:46:22.000Z,23.1
2022-12-18T21:49:50.000Z,23.3
2022-12-18T21:53:18.000Z,23.4
2022-12-18T21:56:46.000Z,23.5
2022-12-18T21:59:35.000Z,24.8
2022-12-18T22:03:03.000Z,22.5
2022-12-18T22:06:39.000Z,21.6
2022-12-18T22:10:08.000Z,23.2
2022-12-18T22:13:35.000Z,22.2
2022-12-18T22:17:03.000Z,25.6
2022-12-18T22:20:31.000Z,22.9
2022-12-18T22:23:59.000Z,25.8
2022-12-18T22:27:27.000Z,26.4
2022-12-18T22:30:55.000Z,27.5
2022-12-18T22:34:27.000Z,25
2022-12-18T22:37:18.000Z,26.3
2022-12-18T22:40:47.000Z,23.1
2022-12-18T22:44:15.000Z,23.7
2022-12-18T22:47:43.000Z,23.6
2022-12-18T22:51:11.000Z,25.5
2022-12-18T22:54:39.000Z,22.6
2022-12-18T22:58:13.000Z,26
2022-12-18T23:01:41.000Z,25.9
2022-12-18T23:05:09.000Z,23.5
2022-12-18T23:08:37.000Z,24.6
2022-12-18T23:12:05.000Z,27
2022-12-18T23:14:55.000Z,27.4
2022-12-18T23:18:23.000Z,24.2
2022-12-18T23:21:50.000Z,23.5
2022-12-18T23:25:18.000Z,24.3
2022-12-18T23:28:46.000Z,23.5
2022-12-18T23:32:14.000Z,20.8
2022-12-18T23:35:42.000Z,24.2
2022-12-18T23:39:38.000Z,24.7
2022-12-18T23:43:06.000Z,24.3
2022-12-18T23:46:34.000Z,25.1
2022-12-18T23:50:02.000Z,25.3
2022-12-18T23:52:51.000Z,24.9
2022-12-18T23:56:29.000Z,23
2022-12-18T23:59:57.000Z,25
